Terminal Aerodrome Forecast
Issued by NWS Paducah, KY

Home | Current Version | Previous Version | Text Only | Print | Product List | Glossary On
Versions: 1 2 3 4 5 6 7 8 9 10 11 12 13 14
739
FTUS43 KPAH 312320
TAFPAH
TAF
KPAH 312320Z 0100/0124 35005KT P6SM SCT040 BKN100
     FM011400 01008KT P6SM SCT250
     FM011700 02010G16KT P6SM SCT035=

USA.gov is the U.S. government's official web portal to all federal, state and local government web resources and services.